Pagina principale
METAR-TAF:

METAR-TAF

Aeroporti :

Aeroporto di Graz

Graz, Austria

latitudine: 47-00N, longitudine: 015-26E, altezza: 340 m

Osservazione

Il bollettino è stato emesso 38 minuti fa, alle 09:50 UTC
Vento 4 kt da sud/sud-est, variando fra est/sud-est e ovest/sud-ovest
Temperature 23°C
Umidità 57%
Pressione 1006 hPa
Visibilità 10 km o più
Poco nuvoloso ad un'altezza di 6000 ft

METAR: LOWG 070950Z 16004KT 110V250 9999 FEW060 23/14 Q1006 NOSIG

Ora: 12:28 (10:28 UTC)

Previsione

Il bollettino è stato emesso 5 ore e 13 minuti fa, alle 05:15 UTC
Previsione valida dal 07 alle 06 UTC al 08 alle 06 UTC
Vento 4 kt da direzioni variabili
Visibilità 10 km o più
Poco nuvoloso ad un'altezza di 6000 ft
Temporaneamente
dal 07 alle 10 UTC al 07 alle 17 UTC
Vento 10 kt da sud
Poco nuvoloso ad un'altezza di 5500 ft
Poco nuvoloso ad un'altezza di 6000 ft, Cumulonembo.

TAF: LOWG 070515Z 0706/0806 VRB04KT 9999 FEW060 TX26/0713Z TN15/0806Z TEMPO 0710/0717 19010KT FEW055 FEW060CB

Osservazioni e previsioni meteorologiche di più di 4000 aeroporti (messaggi METAR e TAF).

Le stazioni disponibili sono rappresentate dai dischi gialli e rossi sulla carta.

Puntare il mouse per vedere il nome della stazione.

Clicca sopra per visualizzare le osservazioni e previsioni meteorologiche.

Per cambiare la mappa : fare clic sui pulsanti verdi con una croce nera per ingrandire, il pulsante verde con un trattino per diminuire, o sulla freccia verde per le mappe adiacenti.


METAR-TAF: